createdAt,value
2018-06-09T00:00:14.608Z,953.09
2018-06-09T00:01:14.621Z,953.16
2018-06-09T00:02:14.634Z,953.13
2018-06-09T00:03:14.650Z,953.12
2018-06-09T00:04:14.661Z,953.16
2018-06-09T00:05:14.676Z,953.13
2018-06-09T00:06:14.689Z,953.11
2018-06-09T00:07:14.701Z,953.13
2018-06-09T00:08:14.712Z,953.20
2018-06-09T00:09:14.726Z,953.19
2018-06-09T00:10:14.738Z,953.25
2018-06-09T00:11:14.762Z,953.28
2018-06-09T00:12:14.763Z,953.27
2018-06-09T00:13:14.779Z,953.27
2018-06-09T00:14:14.791Z,953.24
2018-06-09T00:15:14.803Z,953.20
2018-06-09T00:16:14.815Z,953.21
2018-06-09T00:17:14.838Z,953.21
2018-06-09T00:18:14.842Z,953.17
2018-06-09T00:19:14.852Z,953.15
2018-06-09T00:20:14.867Z,953.17
2018-06-09T00:21:14.877Z,953.17
2018-06-09T00:22:14.891Z,953.17
2018-06-09T00:23:14.912Z,953.16
2018-06-09T00:24:14.921Z,953.14
2018-06-09T00:25:14.930Z,953.12
2018-06-09T00:26:14.941Z,953.08
2018-06-09T00:27:14.957Z,953.11
2018-06-09T00:28:14.968Z,953.08
2018-06-09T00:29:14.989Z,953.08
2018-06-09T00:30:14.995Z,953.07
2018-06-09T00:31:15.012Z,953.11
2018-06-09T00:32:15.021Z,953.13
2018-06-09T00:33:15.037Z,953.11
2018-06-09T00:34:15.043Z,953.08
2018-06-09T00:35:15.067Z,953.08
2018-06-09T00:36:15.076Z,953.06
2018-06-09T00:37:15.092Z,953.06
2018-06-09T00:38:15.097Z,953.05
2018-06-09T00:39:15.108Z,953.04
2018-06-09T00:40:15.120Z,953.01
2018-06-09T00:41:15.135Z,953.05
2018-06-09T00:42:15.145Z,953.06
2018-06-09T00:43:15.160Z,953.09
2018-06-09T00:44:15.176Z,953.07
2018-06-09T00:45:15.184Z,953.09
2018-06-09T00:46:15.194Z,953.11
2018-06-09T00:47:15.209Z,953.10
2018-06-09T00:48:15.224Z,953.06
2018-06-09T00:49:15.241Z,953.04
2018-06-09T00:50:15.246Z,953.01
2018-06-09T00:51:15.260Z,952.99
2018-06-09T00:52:15.273Z,952.99
2018-06-09T00:53:15.296Z,952.98
2018-06-09T00:54:15.294Z,952.98
2018-06-09T00:55:15.310Z,952.98
2018-06-09T00:56:15.325Z,952.98
2018-06-09T00:57:15.332Z,953.00
2018-06-09T00:58:15.351Z,953.00
2018-06-09T00:59:15.361Z,952.99
2018-06-09T01:00:15.382Z,952.99
2018-06-09T01:01:15.384Z,952.98
2018-06-09T01:02:15.396Z,952.99
2018-06-09T01:03:15.410Z,952.97
2018-06-09T01:04:15.422Z,952.99
2018-06-09T01:05:15.435Z,953.03
2018-06-09T01:06:15.454Z,953.02
2018-06-09T01:07:15.460Z,953.02
2018-06-09T01:08:15.482Z,953.01
2018-06-09T01:09:15.485Z,953.08
2018-06-09T01:10:15.500Z,953.11
2018-06-09T01:11:15.518Z,953.12
2018-06-09T01:12:15.527Z,953.12
2018-06-09T01:13:15.551Z,953.15
2018-06-09T01:14:15.551Z,953.16
2018-06-09T01:15:15.564Z,953.16
2018-06-09T01:16:15.589Z,953.15
2018-06-09T01:17:15.591Z,953.15
2018-06-09T01:18:15.608Z,953.16
2018-06-09T01:19:15.622Z,953.17
2018-06-09T01:20:15.625Z,953.12
2018-06-09T01:21:15.636Z,953.13
2018-06-09T01:22:15.649Z,953.04
2018-06-09T01:23:15.667Z,953.06
2018-06-09T01:24:15.677Z,953.03
2018-06-09T01:25:15.708Z,953.03
2018-06-09T01:26:15.704Z,952.98
2018-06-09T01:27:15.713Z,952.98
2018-06-09T01:28:15.729Z,953.01
2018-06-09T01:29:15.736Z,953.00
2018-06-09T01:30:15.756Z,952.99
2018-06-09T01:31:15.774Z,953.03
2018-06-09T01:32:15.776Z,953.01
2018-06-09T01:33:15.785Z,953.02
2018-06-09T01:34:15.800Z,952.99
2018-06-09T01:35:15.814Z,952.96
2018-06-09T01:36:15.833Z,953.00
2018-06-09T01:37:15.846Z,952.94
2018-06-09T01:38:15.847Z,953.03
2018-06-09T01:39:15.868Z,952.98
2018-06-09T01:40:15.879Z,952.96
2018-06-09T01:41:15.887Z,952.96
2018-06-09T01:42:15.901Z,952.93
2018-06-09T01:43:15.923Z,952.91
2018-06-09T01:44:15.929Z,952.95
2018-06-09T01:45:15.939Z,952.90
2018-06-09T01:46:15.954Z,952.88
2018-06-09T01:47:15.961Z,952.89
2018-06-09T01:48:15.976Z,952.84
2018-06-09T01:49:15.984Z,952.87
2018-06-09T01:50:16.005Z,952.82
2018-06-09T01:51:16.011Z,952.78
2018-06-09T01:52:16.023Z,952.76
2018-06-09T01:53:16.034Z,952.75
2018-06-09T01:54:16.044Z,952.73
2018-06-09T01:55:16.059Z,952.73
2018-06-09T01:56:16.070Z,952.74
2018-06-09T01:57:16.108Z,952.74
2018-06-09T01:58:16.095Z,952.75
2018-06-09T01:59:16.108Z,952.73
2018-06-09T02:00:16.122Z,952.75
2018-06-09T02:01:16.130Z,952.73
2018-06-09T02:02:16.145Z,952.70
2018-06-09T02:03:16.165Z,952.69
2018-06-09T02:04:16.202Z,952.67
2018-06-09T02:05:16.183Z,952.71
2018-06-09T02:06:16.195Z,952.63
2018-06-09T02:07:16.204Z,952.70
2018-06-09T02:08:16.219Z,952.66
2018-06-09T02:09:16.240Z,952.63
2018-06-09T02:10:16.244Z,952.64
2018-06-09T02:11:16.255Z,952.62
2018-06-09T02:12:16.271Z,952.66
2018-06-09T02:13:16.284Z,952.66
2018-06-09T02:14:16.293Z,952.67
2018-06-09T02:15:16.325Z,952.70
2018-06-09T02:16:16.320Z,952.73
2018-06-09T02:17:16.330Z,952.71
2018-06-09T02:18:16.343Z,952.71
2018-06-09T02:19:16.361Z,952.71
2018-06-09T02:20:16.365Z,952.76
2018-06-09T02:21:16.384Z,952.75
2018-06-09T02:22:16.389Z,952.77
2018-06-09T02:23:16.403Z,952.78
2018-06-09T02:24:16.419Z,952.81
2018-06-09T02:25:16.434Z,952.84
2018-06-09T02:26:16.440Z,952.85
2018-06-09T02:27:16.475Z,952.89
2018-06-09T02:28:16.467Z,952.85
2018-06-09T02:29:16.482Z,952.90
2018-06-09T02:30:16.492Z,952.90
2018-06-09T02:31:16.500Z,952.94
2018-06-09T02:32:16.538Z,952.90
2018-06-09T02:33:16.544Z,952.94
2018-06-09T02:34:16.537Z,952.90
2018-06-09T02:35:16.591Z,952.90
2018-06-09T02:36:16.561Z,952.88
2018-06-09T02:37:16.575Z,952.87
2018-06-09T02:38:16.598Z,952.85
2018-06-09T02:39:16.600Z,952.80
2018-06-09T02:40:16.610Z,952.84
2018-06-09T02:41:16.636Z,952.85
2018-06-09T02:42:16.637Z,952.86
2018-06-09T02:43:16.652Z,952.87
2018-06-09T02:44:16.660Z,952.91
2018-06-09T02:45:16.671Z,952.92
2018-06-09T02:46:16.690Z,952.90
2018-06-09T02:47:16.704Z,952.91
2018-06-09T02:48:16.708Z,952.89
2018-06-09T02:49:16.723Z,952.91
2018-06-09T02:50:16.740Z,952.87
2018-06-09T02:51:16.746Z,952.90
2018-06-09T02:52:16.791Z,952.91
2018-06-09T02:53:16.769Z,952.87
2018-06-09T02:54:16.789Z,952.89
2018-06-09T02:55:16.797Z,952.91
2018-06-09T02:56:16.809Z,952.90
2018-06-09T02:57:16.820Z,952.87
2018-06-09T02:58:16.834Z,952.87
2018-06-09T02:59:16.846Z,952.88
2018-06-09T03:00:16.856Z,952.88
2018-06-09T03:01:16.883Z,952.84
2018-06-09T03:02:16.877Z,952.83
2018-06-09T03:03:16.892Z,952.83
2018-06-09T03:04:16.909Z,952.85
2018-06-09T03:05:16.918Z,952.83
2018-06-09T03:06:16.930Z,952.82
2018-06-09T03:07:16.940Z,952.87
2018-06-09T03:08:16.956Z,952.87
2018-06-09T03:09:16.969Z,952.88
2018-06-09T03:10:16.996Z,952.89
2018-06-09T03:11:16.990Z,952.91
2018-06-09T03:12:17.006Z,952.96
2018-06-09T03:13:17.020Z,952.98
2018-06-09T03:14:17.024Z,952.98
2018-06-09T03:15:17.038Z,953.00
2018-06-09T03:16:17.059Z,952.99
2018-06-09T03:17:17.065Z,953.02
2018-06-09T03:18:17.075Z,952.98
2018-06-09T03:19:17.096Z,953.02
2018-06-09T03:20:17.101Z,953.00
2018-06-09T03:21:17.113Z,953.04
2018-06-09T03:22:17.123Z,953.08
2018-06-09T03:23:17.137Z,953.08
2018-06-09T03:24:17.170Z,953.09
2018-06-09T03:25:17.157Z,953.11
2018-06-09T03:26:17.178Z,953.15
2018-06-09T03:27:17.181Z,953.14
2018-06-09T03:28:17.192Z,953.21
2018-06-09T03:29:17.221Z,953.20
2018-06-09T03:30:17.218Z,953.21
2018-06-09T03:31:17.238Z,953.18
2018-06-09T03:32:17.247Z,953.16
2018-06-09T03:33:17.255Z,953.17
2018-06-09T03:34:17.265Z,953.18
2018-06-09T03:35:17.276Z,953.13
2018-06-09T03:36:17.294Z,953.15
2018-06-09T03:37:17.301Z,953.16
2018-06-09T03:38:17.313Z,953.20
2018-06-09T03:39:17.356Z,953.22
2018-06-09T03:40:17.343Z,953.23
2018-06-09T03:41:17.349Z,953.25
2018-06-09T03:42:17.362Z,953.25
2018-06-09T03:43:17.437Z,953.26
2018-06-09T03:44:17.386Z,953.24
2018-06-09T03:45:17.405Z,953.22
2018-06-09T03:46:17.418Z,953.23
2018-06-09T03:47:17.423Z,953.24
2018-06-09T03:48:17.434Z,953.25
2018-06-09T03:49:17.465Z,953.25
2018-06-09T03:50:17.457Z,953.22
2018-06-09T03:51:17.469Z,953.23
2018-06-09T03:52:17.492Z,953.28
2018-06-09T03:53:17.493Z,953.27
2018-06-09T03:54:17.510Z,953.29
2018-06-09T03:55:17.520Z,953.24
2018-06-09T03:56:17.546Z,953.28
2018-06-09T03:57:17.543Z,953.23
2018-06-09T03:58:17.559Z,953.24
2018-06-09T03:59:17.568Z,953.22
2018-06-09T04:00:17.588Z,953.17
2018-06-09T04:01:17.589Z,953.17
2018-06-09T04:02:17.601Z,953.15
2018-06-09T04:03:17.616Z,953.12
2018-06-09T04:04:17.644Z,953.11
2018-06-09T04:05:17.635Z,953.10
2018-06-09T04:06:17.652Z,953.15
2018-06-09T04:07:17.662Z,953.18
2018-06-09T04:08:17.676Z,953.18
2018-06-09T04:09:17.685Z,953.22
2018-06-09T04:10:17.699Z,953.19
2018-06-09T04:11:17.720Z,953.24
2018-06-09T04:12:17.729Z,953.29
2018-06-09T04:13:17.739Z,953.31
2018-06-09T04:14:17.748Z,953.29
2018-06-09T04:15:17.759Z,953.33
2018-06-09T04:16:17.773Z,953.36
2018-06-09T04:17:17.781Z,953.43
2018-06-09T04:18:17.808Z,953.40
2018-06-09T04:19:17.814Z,953.41
2018-06-09T04:20:17.823Z,953.45
2018-06-09T04:21:17.831Z,953.45
2018-06-09T04:22:17.843Z,953.44
2018-06-09T04:23:17.859Z,953.49
2018-06-09T04:24:17.873Z,953.52
2018-06-09T04:25:17.878Z,953.55
2018-06-09T04:26:17.894Z,953.56
2018-06-09T04:27:17.905Z,953.59
2018-06-09T04:28:17.934Z,953.61
2018-06-09T04:29:17.934Z,953.68
2018-06-09T04:30:17.940Z,953.68
2018-06-09T04:31:17.960Z,953.67
2018-06-09T04:32:17.963Z,953.66
2018-06-09T04:33:17.984Z,953.67
2018-06-09T04:34:17.997Z,953.63
2018-06-09T04:35:18.015Z,953.61
2018-06-09T04:36:18.013Z,953.57
2018-06-09T04:37:18.037Z,953.56
2018-06-09T04:38:18.042Z,953.55
2018-06-09T04:39:18.051Z,953.55
2018-06-09T04:40:18.060Z,953.53
2018-06-09T04:41:18.074Z,953.64
2018-06-09T04:42:18.085Z,953.61
2018-06-09T04:43:18.108Z,953.62
2018-06-09T04:44:18.114Z,953.66
2018-06-09T04:45:18.124Z,953.66
2018-06-09T04:46:18.135Z,953.66
2018-06-09T04:47:18.147Z,953.62
2018-06-09T04:48:18.167Z,953.64
2018-06-09T04:49:18.174Z,953.63
2018-06-09T04:50:18.188Z,953.61
2018-06-09T04:51:18.198Z,953.63
2018-06-09T04:52:18.303Z,953.66
2018-06-09T04:53:18.240Z,953.64
2018-06-09T04:54:18.230Z,953.65
2018-06-09T04:55:18.243Z,953.64
2018-06-09T04:56:18.264Z,953.67
2018-06-09T04:57:18.274Z,953.70
2018-06-09T04:58:18.282Z,953.72
2018-06-09T04:59:18.344Z,953.72
2018-06-09T05:00:18.307Z,953.75
2018-06-09T05:01:18.317Z,953.77
2018-06-09T05:02:18.336Z,953.80
2018-06-09T05:03:18.343Z,953.78
2018-06-09T05:04:18.354Z,953.79
2018-06-09T05:05:18.367Z,953.81
2018-06-09T05:06:18.382Z,953.80
2018-06-09T05:07:18.401Z,953.77
2018-06-09T05:08:18.414Z,953.79
2018-06-09T05:09:18.420Z,953.77
2018-06-09T05:10:18.432Z,953.76
2018-06-09T05:11:18.476Z,953.76
2018-06-09T05:12:18.459Z,953.77
2018-06-09T05:13:18.470Z,953.78
2018-06-09T05:14:18.503Z,953.81
2018-06-09T05:15:18.491Z,953.81
2018-06-09T05:16:18.509Z,953.79
2018-06-09T05:17:18.520Z,953.83
2018-06-09T05:18:18.534Z,953.83
2018-06-09T05:19:18.554Z,953.88
2018-06-09T05:20:18.555Z,953.88
2018-06-09T05:21:18.569Z,953.89
2018-06-09T05:22:18.577Z,953.95
2018-06-09T05:23:18.590Z,953.94
2018-06-09T05:24:18.618Z,953.98
2018-06-09T05:25:18.622Z,953.95
2018-06-09T05:26:18.701Z,953.98
2018-06-09T05:27:18.648Z,953.95
2018-06-09T05:28:18.660Z,953.95
2018-06-09T05:29:18.663Z,953.99
2018-06-09T05:30:18.679Z,954.00
2018-06-09T05:31:18.692Z,953.99
2018-06-09T05:32:18.709Z,954.05
2018-06-09T05:33:18.722Z,954.07
2018-06-09T05:34:18.737Z,954.12
2018-06-09T05:35:18.744Z,954.12
2018-06-09T05:36:18.756Z,954.16
2018-06-09T05:37:18.764Z,954.14
2018-06-09T05:38:18.782Z,954.18
2018-06-09T05:39:18.789Z,954.16
2018-06-09T05:40:18.806Z,954.13
2018-06-09T05:41:18.824Z,954.13
2018-06-09T05:42:18.828Z,954.12
2018-06-09T05:43:18.839Z,954.14
2018-06-09T05:44:18.852Z,954.13
2018-06-09T05:45:18.869Z,954.14
2018-06-09T05:46:18.879Z,954.12
2018-06-09T05:47:18.888Z,954.10
2018-06-09T05:48:18.908Z,954.16
2018-06-09T05:49:18.920Z,954.18
2018-06-09T05:50:18.928Z,954.17
2018-06-09T05:51:18.941Z,954.18
2018-06-09T05:52:18.963Z,954.19
2018-06-09T05:53:18.968Z,954.20
2018-06-09T05:54:18.979Z,954.19
2018-06-09T05:55:18.990Z,954.20
2018-06-09T05:56:19.015Z,954.20
2018-06-09T05:57:19.014Z,954.19
2018-06-09T05:58:19.029Z,954.21
2018-06-09T05:59:19.052Z,954.21
2018-06-09T06:00:19.054Z,954.20
2018-06-09T06:01:19.071Z,954.21
2018-06-09T06:02:19.097Z,954.26
2018-06-09T06:03:19.092Z,954.24
2018-06-09T06:04:19.104Z,954.25
2018-06-09T06:05:19.116Z,954.28
2018-06-09T06:06:19.129Z,954.28
2018-06-09T06:07:19.142Z,954.29
2018-06-09T06:08:19.179Z,954.32
2018-06-09T06:09:19.180Z,954.31
2018-06-09T06:10:19.190Z,954.34
2018-06-09T06:11:19.196Z,954.31
2018-06-09T06:12:19.205Z,954.34
2018-06-09T06:13:19.225Z,954.30
2018-06-09T06:14:19.235Z,954.32
2018-06-09T06:15:19.254Z,954.34
2018-06-09T06:16:19.256Z,954.35
2018-06-09T06:17:19.269Z,954.30
2018-06-09T06:18:19.291Z,954.31
2018-06-09T06:19:19.294Z,954.29
2018-06-09T06:20:19.314Z,954.31
2018-06-09T06:21:19.320Z,954.29
2018-06-09T06:22:19.334Z,954.27
2018-06-09T06:23:19.348Z,954.31
2018-06-09T06:24:19.360Z,954.26
2018-06-09T06:25:19.381Z,954.30
2018-06-09T06:26:19.382Z,954.30
2018-06-09T06:27:19.401Z,954.35
2018-06-09T06:28:19.411Z,954.34
2018-06-09T06:29:19.426Z,954.34
2018-06-09T06:30:19.450Z,954.37
2018-06-09T06:31:19.446Z,954.35
2018-06-09T06:32:19.460Z,954.39
2018-06-09T06:33:19.471Z,954.39
2018-06-09T06:34:19.488Z,954.40
2018-06-09T06:35:19.503Z,954.40
2018-06-09T06:36:19.538Z,954.39
2018-06-09T06:37:19.522Z,954.35
2018-06-09T06:38:19.536Z,954.36
2018-06-09T06:39:19.548Z,954.32
2018-06-09T06:40:19.563Z,954.29
2018-06-09T06:41:19.572Z,954.29
2018-06-09T06:42:19.592Z,954.27
2018-06-09T06:43:19.600Z,954.26
2018-06-09T06:44:20.078Z,954.24
2018-06-09T06:45:19.622Z,954.21
2018-06-09T06:46:19.638Z,954.22
2018-06-09T06:47:19.697Z,954.19
2018-06-09T06:48:19.665Z,954.21
2018-06-09T06:49:19.684Z,954.20
2018-06-09T06:50:19.722Z,954.23
2018-06-09T06:51:19.704Z,954.27
2018-06-09T06:52:19.780Z,954.29
2018-06-09T06:53:19.725Z,954.24
2018-06-09T06:54:19.737Z,954.34
2018-06-09T06:55:19.757Z,954.34
2018-06-09T06:56:19.767Z,954.32
2018-06-09T06:57:19.786Z,954.30
2018-06-09T06:58:19.819Z,954.29
2018-06-09T06:59:19.812Z,954.30
2018-06-09T07:00:19.819Z,954.26
2018-06-09T07:01:19.829Z,954.33
2018-06-09T07:02:19.843Z,954.34
2018-06-09T07:03:19.859Z,954.33
2018-06-09T07:04:19.872Z,954.34
2018-06-09T07:05:19.889Z,954.34
2018-06-09T07:06:19.897Z,954.35
2018-06-09T07:07:19.909Z,954.36
2018-06-09T07:08:19.920Z,954.38
2018-06-09T07:09:19.934Z,954.39
2018-06-09T07:10:19.948Z,954.38
2018-06-09T07:11:19.964Z,954.33
2018-06-09T07:12:19.974Z,954.36
2018-06-09T07:13:19.989Z,954.39
2018-06-09T07:14:19.999Z,954.41
2018-06-09T07:15:20.016Z,954.39
2018-06-09T07:16:20.028Z,954.39
2018-06-09T07:17:20.041Z,954.41
2018-06-09T07:18:20.073Z,954.41
2018-06-09T07:19:20.080Z,954.40
2018-06-09T07:20:20.081Z,954.45
2018-06-09T07:21:20.095Z,954.42
2018-06-09T07:22:20.108Z,954.36
2018-06-09T07:23:20.125Z,954.39
2018-06-09T07:24:20.135Z,954.37
2018-06-09T07:25:20.154Z,954.37
2018-06-09T07:26:20.162Z,954.40
2018-06-09T07:27:20.174Z,954.37
2018-06-09T07:28:20.189Z,954.38
2018-06-09T07:29:20.199Z,954.36
2018-06-09T07:30:20.215Z,954.36
2018-06-09T07:31:20.227Z,954.36
2018-06-09T07:32:20.246Z,954.37
2018-06-09T07:33:20.252Z,954.36
2018-06-09T07:34:20.268Z,954.27
2018-06-09T07:35:20.280Z,954.30
2018-06-09T07:36:20.296Z,954.28
2018-06-09T07:37:20.310Z,954.25
2018-06-09T07:38:20.328Z,954.24
2018-06-09T07:39:20.336Z,954.21
2018-06-09T07:40:20.348Z,954.25
2018-06-09T07:41:20.360Z,954.22
2018-06-09T07:42:20.373Z,954.25
2018-06-09T07:43:20.389Z,954.21
2018-06-09T07:44:20.438Z,954.25
2018-06-09T07:45:20.421Z,954.20
2018-06-09T07:46:20.430Z,954.22
2018-06-09T07:47:20.444Z,954.22
2018-06-09T07:48:20.460Z,954.21
2018-06-09T07:49:20.470Z,954.22
2018-06-09T07:50:20.497Z,954.23
2018-06-09T07:51:20.496Z,954.26
2018-06-09T07:52:20.519Z,954.21
2018-06-09T07:53:20.523Z,954.21
2018-06-09T07:54:20.538Z,954.21
2018-06-09T07:55:20.549Z,954.20
2018-06-09T07:56:20.568Z,954.20
2018-06-09T07:57:20.589Z,954.22
2018-06-09T07:58:20.597Z,954.23
2018-06-09T07:59:20.602Z,954.24
2018-06-09T08:00:20.618Z,954.26
2018-06-09T08:01:20.633Z,954.21
2018-06-09T08:02:20.650Z,954.25
2018-06-09T08:03:20.660Z,954.25
2018-06-09T08:04:20.676Z,954.25
2018-06-09T08:05:20.695Z,954.25
2018-06-09T08:06:20.701Z,954.25
2018-06-09T08:07:20.722Z,954.23
2018-06-09T08:08:20.732Z,954.21
2018-06-09T08:09:20.752Z,954.25
2018-06-09T08:10:20.755Z,954.22
2018-06-09T08:11:21.694Z,954.23
2018-06-09T08:12:20.790Z,954.24
2018-06-09T08:13:20.799Z,954.26
2018-06-09T08:14:20.819Z,954.28
2018-06-09T08:15:20.829Z,954.30
2018-06-09T08:16:20.842Z,954.32
2018-06-09T08:17:20.856Z,954.31
2018-06-09T08:18:20.872Z,954.35
2018-06-09T08:19:20.938Z,954.34
2018-06-09T08:20:20.904Z,954.36
2018-06-09T08:21:20.919Z,954.35
2018-06-09T08:22:20.925Z,954.32
2018-06-09T08:23:20.954Z,954.32
2018-06-09T08:24:20.956Z,954.35
2018-06-09T08:25:20.967Z,954.32
2018-06-09T08:26:20.985Z,954.28
2018-06-09T08:27:20.997Z,954.29
2018-06-09T08:28:21.016Z,954.26
2018-06-09T08:29:21.025Z,954.25
2018-06-09T08:30:21.039Z,954.31
2018-06-09T08:31:21.053Z,954.30
2018-06-09T08:32:21.070Z,954.31
2018-06-09T08:33:21.081Z,954.31
2018-06-09T08:34:21.117Z,954.30
2018-06-09T08:35:21.114Z,954.37
2018-06-09T08:36:21.131Z,954.33
2018-06-09T08:37:21.146Z,954.37
2018-06-09T08:38:21.159Z,954.38
2018-06-09T08:39:21.168Z,954.33
2018-06-09T08:40:21.183Z,954.32
2018-06-09T08:41:21.227Z,954.35
2018-06-09T08:42:21.218Z,954.34
2018-06-09T08:43:21.229Z,954.36
2018-06-09T08:44:21.246Z,954.40
2018-06-09T08:45:21.254Z,954.39
2018-06-09T08:46:21.275Z,954.38
2018-06-09T08:47:21.289Z,954.38
2018-06-09T08:48:21.311Z,954.40
2018-06-09T08:49:21.315Z,954.39
2018-06-09T08:50:21.328Z,954.39
2018-06-09T08:51:21.342Z,954.40
2018-06-09T08:52:21.357Z,954.45
2018-06-09T08:53:21.386Z,954.48
2018-06-09T08:54:21.391Z,954.53
2018-06-09T08:55:21.404Z,954.51
2018-06-09T08:56:21.416Z,954.51
2018-06-09T08:57:21.463Z,954.52
2018-06-09T08:58:21.453Z,954.53
2018-06-09T08:59:21.461Z,954.54
2018-06-09T09:00:21.481Z,954.57
2018-06-09T09:01:21.512Z,954.56
2018-06-09T09:02:21.509Z,954.59
2018-06-09T09:03:21.520Z,954.58
2018-06-09T09:04:21.538Z,954.55
2018-06-09T09:05:21.550Z,954.52
2018-06-09T09:06:21.567Z,954.51
2018-06-09T09:07:21.586Z,954.54
2018-06-09T09:08:21.603Z,954.56
2018-06-09T09:09:21.647Z,954.57
2018-06-09T09:10:21.636Z,954.57
2018-06-09T09:11:21.649Z,954.53
2018-06-09T09:12:21.671Z,954.61
2018-06-09T09:13:21.676Z,954.57
2018-06-09T09:14:21.687Z,954.58
2018-06-09T09:15:21.711Z,954.57
2018-06-09T09:16:21.718Z,954.62
2018-06-09T09:17:21.735Z,954.59
2018-06-09T09:18:21.752Z,954.55
2018-06-09T09:19:21.766Z,954.58
2018-06-09T09:20:21.786Z,954.60
2018-06-09T09:21:21.802Z,954.54
2018-06-09T09:22:21.820Z,954.63
2018-06-09T09:23:21.826Z,954.71
2018-06-09T09:24:21.842Z,954.67
2018-06-09T09:25:21.856Z,954.62
2018-06-09T09:26:21.876Z,954.63
2018-06-09T09:27:21.893Z,954.70
2018-06-09T09:28:21.905Z,954.71
2018-06-09T09:29:21.918Z,954.68
2018-06-09T09:30:21.932Z,954.61
2018-06-09T09:31:21.949Z,954.58
2018-06-09T09:32:21.966Z,954.58
2018-06-09T09:33:21.988Z,954.57
2018-06-09T09:34:21.999Z,954.59
2018-06-09T09:35:22.012Z,954.59
2018-06-09T09:36:22.025Z,954.57
2018-06-09T09:37:22.047Z,954.55
2018-06-09T09:38:22.056Z,954.53
2018-06-09T09:39:22.083Z,954.53
2018-06-09T09:40:22.090Z,954.51
2018-06-09T09:41:22.102Z,954.60
2018-06-09T09:42:22.119Z,954.67
2018-06-09T09:43:22.131Z,954.66
2018-06-09T09:44:22.151Z,954.71
2018-06-09T09:45:22.181Z,954.59
2018-06-09T09:46:22.227Z,954.57
2018-06-09T09:47:22.194Z,954.54
2018-06-09T09:48:22.212Z,954.61
2018-06-09T09:49:22.227Z,954.71
2018-06-09T09:50:22.238Z,954.65
2018-06-09T09:51:22.278Z,954.55
2018-06-09T09:52:22.271Z,954.54
2018-06-09T09:53:22.302Z,954.64
2018-06-09T09:54:22.302Z,954.62
2018-06-09T09:55:22.314Z,954.64
2018-06-09T09:56:22.332Z,954.68
2018-06-09T09:57:22.359Z,954.65
2018-06-09T09:58:22.362Z,954.71
2018-06-09T09:59:22.382Z,954.69
2018-06-09T10:00:22.394Z,954.64
2018-06-09T10:01:22.405Z,954.63
2018-06-09T10:02:22.420Z,954.68
2018-06-09T10:03:22.437Z,954.67
2018-06-09T10:04:22.457Z,954.57
2018-06-09T10:05:22.468Z,954.61
2018-06-09T10:06:22.487Z,954.59
2018-06-09T10:07:22.587Z,954.57
2018-06-09T10:08:22.526Z,954.58
2018-06-09T10:09:22.531Z,954.60
2018-06-09T10:10:22.551Z,954.64
2018-06-09T10:11:22.565Z,954.63
2018-06-09T10:12:22.579Z,954.58
2018-06-09T10:13:22.594Z,954.50
2018-06-09T10:14:22.609Z,954.47
2018-06-09T10:15:23.301Z,954.41
2018-06-09T10:16:22.646Z,954.43
2018-06-09T10:17:22.661Z,954.36
2018-06-09T10:18:22.674Z,954.35
2018-06-09T10:19:22.687Z,954.30
2018-06-09T10:20:22.714Z,954.35
2018-06-09T10:21:22.720Z,954.49
2018-06-09T10:22:22.737Z,954.48
2018-06-09T10:23:22.753Z,954.45
2018-06-09T10:24:22.765Z,954.36
2018-06-09T10:25:22.788Z,954.37
2018-06-09T10:26:22.798Z,954.36
2018-06-09T10:27:22.813Z,954.37
2018-06-09T10:28:22.833Z,954.31
2018-06-09T10:29:22.848Z,954.27
2018-06-09T10:30:22.860Z,954.24
2018-06-09T10:31:22.876Z,954.17
2018-06-09T10:32:22.890Z,954.18
2018-06-09T10:33:22.903Z,954.18
2018-06-09T10:34:22.923Z,954.22
2018-06-09T10:35:22.944Z,954.35
2018-06-09T10:36:22.953Z,954.40
2018-06-09T10:37:22.971Z,954.29
2018-06-09T10:38:22.991Z,954.16
2018-06-09T10:39:23.001Z,954.15
2018-06-09T10:40:23.017Z,954.29
2018-06-09T10:41:23.032Z,954.33
2018-06-09T10:42:23.062Z,954.33
2018-06-09T10:43:23.064Z,954.37
2018-06-09T10:44:23.078Z,954.37
2018-06-09T10:45:23.096Z,954.28
2018-06-09T10:46:23.111Z,954.26
2018-06-09T10:47:23.127Z,954.24
2018-06-09T10:48:23.148Z,954.22
2018-06-09T10:49:23.159Z,954.17
2018-06-09T10:50:23.183Z,954.08
2018-06-09T10:51:23.189Z,954.09
2018-06-09T10:52:23.208Z,954.17
2018-06-09T10:53:23.224Z,954.12
2018-06-09T10:54:23.241Z,954.10
2018-06-09T10:55:23.255Z,954.11
2018-06-09T10:56:23.271Z,954.03
2018-06-09T10:57:23.290Z,954.01
2018-06-09T10:58:23.306Z,954.00
2018-06-09T10:59:23.318Z,953.97
2018-06-09T11:00:23.340Z,953.98
2018-06-09T11:01:23.349Z,954.07
2018-06-09T11:02:23.366Z,954.08
2018-06-09T11:03:23.383Z,954.07
2018-06-09T11:04:23.400Z,954.11
2018-06-09T11:05:23.419Z,954.03
2018-06-09T11:06:23.434Z,954.03
2018-06-09T11:07:23.454Z,954.02
2018-06-09T11:08:23.476Z,954.08
2018-06-09T11:09:23.479Z,954.09
2018-06-09T11:10:23.492Z,954.01
2018-06-09T11:11:23.509Z,953.86
2018-06-09T11:12:23.532Z,953.81
2018-06-09T11:13:23.562Z,954.03
2018-06-09T11:14:23.557Z,953.95
2018-06-09T11:15:23.573Z,954.05
2018-06-09T11:16:23.597Z,953.93
2018-06-09T11:17:23.608Z,953.98
2018-06-09T11:18:23.697Z,953.93
2018-06-09T11:19:23.741Z,953.88
2018-06-09T11:20:23.656Z,953.85
2018-06-09T11:21:23.672Z,953.82
2018-06-09T11:22:23.714Z,953.79
2018-06-09T11:23:23.715Z,953.71
2018-06-09T11:24:23.775Z,953.63
2018-06-09T11:25:23.737Z,953.79
2018-06-09T11:26:23.750Z,953.75
2018-06-09T11:27:23.771Z,953.63
2018-06-09T11:28:23.785Z,953.55
2018-06-09T11:29:23.801Z,953.62
2018-06-09T11:30:23.826Z,953.62
2018-06-09T11:31:23.836Z,953.66
2018-06-09T11:32:23.849Z,953.78
2018-06-09T11:33:23.867Z,953.80
2018-06-09T11:34:23.886Z,953.82
2018-06-09T11:35:23.900Z,953.90
2018-06-09T11:36:23.949Z,953.89
2018-06-09T11:37:23.943Z,953.92
2018-06-09T11:38:23.957Z,953.92
2018-06-09T11:39:23.986Z,953.92
2018-06-09T11:40:24.001Z,953.91
2018-06-09T11:41:24.011Z,954.03
2018-06-09T11:42:24.029Z,954.10
2018-06-09T11:43:24.051Z,954.11
2018-06-09T11:44:24.110Z,954.14
2018-06-09T11:45:24.125Z,954.06
2018-06-09T11:46:24.112Z,953.99
2018-06-09T11:47:24.134Z,954.12
2018-06-09T11:48:24.163Z,954.27
2018-06-09T11:49:24.180Z,954.18
2018-06-09T11:50:24.209Z,953.79
2018-06-09T11:51:24.236Z,953.92
2018-06-09T11:52:24.246Z,953.86
2018-06-09T11:53:24.275Z,953.91
2018-06-09T11:54:24.291Z,954.12
2018-06-09T11:55:24.323Z,953.77
2018-06-09T11:56:24.339Z,953.92
2018-06-09T11:57:24.368Z,954.10
2018-06-09T11:58:24.382Z,954.23
2018-06-09T11:59:24.408Z,954.26
2018-06-09T12:00:24.447Z,954.25
2018-06-09T12:01:24.452Z,954.25
2018-06-09T12:02:24.472Z,954.17
2018-06-09T12:03:24.498Z,953.82
2018-06-09T12:04:24.521Z,953.71
2018-06-09T12:05:24.545Z,953.87
2018-06-09T12:06:24.579Z,954.18
2018-06-09T12:07:24.592Z,954.18
2018-06-09T12:08:24.614Z,954.22
2018-06-09T12:09:24.638Z,954.28
2018-06-09T12:10:24.664Z,954.37
2018-06-09T12:11:24.685Z,954.34
2018-06-09T12:12:24.728Z,954.36
2018-06-09T12:13:24.734Z,954.33
2018-06-09T12:14:24.758Z,954.38
2018-06-09T12:15:24.784Z,954.37
2018-06-09T12:16:24.811Z,954.35
2018-06-09T12:17:24.835Z,954.26
2018-06-09T12:18:24.863Z,954.24
2018-06-09T12:19:24.891Z,954.30
2018-06-09T12:20:24.920Z,954.29
2018-06-09T12:21:24.938Z,954.28
2018-06-09T12:22:24.967Z,954.22
2018-06-09T12:23:24.994Z,954.27
2018-06-09T12:24:25.024Z,954.28
2018-06-09T12:25:25.051Z,954.24
2018-06-09T12:26:25.088Z,954.28
2018-06-09T12:27:25.113Z,954.33
2018-06-09T12:28:25.135Z,954.31